Skip Navigation LinksHome page > Weather > Current weather Skip Navigation Links

Current Weather

Chicago Midway, Chicago

For information only: do not use for flight planning or navigation.
Latest weather
Observation time Thursday, November 21, 2019 1:37 PM CST
Local time Thursday, November 21, 2019 2:00 PM CST
Flight conditions Marginal Visual Meteorological Conditions
Winds
Wind direction West (260°)
Wind speed 29 mph
Wind gusting to 44 mph
Peak wind speed 47 mph, 1:02 PM
Peak wind direction South-Southwest (210°)
Visibility 10 mi.
Sky condition
Ceiling 1,600 ft. broken clouds
Cloud layer broken clouds 1,600 ft.
Cloud layer overcast 2,300 ft.
Temperature 55°F
Dewpoint 49°F
Altimeter 29.69 in.Hg
Derived measurements
Relative humidity 80%
Density altitude 792 ft.
Remarks
Automated weather observing station with precipitation discriminator.
Pressure rising rapidly.
METAR KMDW 211937Z 26025G38KT 10SM BKN016 OVC023 13/09 A2969 RMK AO2 PK WND 21041/1902 PRESRR T01280094

Settings

Location code

InnerDrive.Weather 4.0.6770.0 Release CLR 4.0.30319.42000
Copyright ©2018 Inner Drive Technology. All rights reserved. Portions Copyright ©1986-2018 David Braverman.

Find weather

Site navigation


Skip Navigation Links

Place info

Page info

PayPal - The safer, easier way to pay online!

Return home.

Copyright ©2019 Inner Drive Technology. Purveyors of fine, hand-crafted computer software. Page printed 2019-11-21T20:00:15 UTC.